Time;durP1;ratioP1;P1;durP2;ratioP2;P2;SDS_P1;SDS_P2;PMS_P1;PMS_P2;Temp;Humidity;BMP_temperature;BMP_pressure;BME280_temperature;BME280_humidity;BME280_pressure;Samples;Min_cycle;Max_cycle;Signal;HPM_P1;HPM_P2
2023/05/11 00:01:32;;;;;;;0.20;0.20;;;;;;;20.45;55.05;101020.47;5124685;27;20040;-43
2023/05/11 00:03:58;;;;;;;0.20;0.20;;;;;;;20.45;54.78;101029.59;5094157;28;20507;-44
2023/05/11 00:06:24;;;;;;;0.20;0.20;;;;;;;20.45;54.55;101017.69;5093437;28;20238;-44
2023/05/11 00:08:50;;;;;;;0.20;0.20;;;;;;;20.45;54.88;101023.22;5093349;28;20054;-45
2023/05/11 00:11:17;;;;;;;0.20;0.20;;;;;;;20.44;55.03;101022.41;5115773;27;20049;-47
2023/05/11 00:13:43;;;;;;;0.20;0.20;;;;;;;20.44;55.06;101021.56;5115314;28;20219;-46
2023/05/11 00:16:09;;;;;;;0.20;0.20;;;;;;;20.45;55.23;101023.22;5115573;28;20469;-44
2023/05/11 00:18:35;;;;;;;0.20;0.20;;;;;;;20.45;54.89;101021.28;5115557;28;20590;-46
2023/05/11 00:21:01;;;;;;;0.20;0.20;;;;;;;20.44;54.97;101016.88;5116113;27;20055;-45
2023/05/11 00:23:26;;;;;;;0.20;0.20;;;;;;;20.44;55.11;101027.94;5115475;28;20243;-45
2023/05/11 00:25:52;;;;;;;0.20;0.20;;;;;;;20.44;54.72;101018.81;5115664;28;20043;-44
2023/05/11 00:28:18;;;;;;;0.20;0.20;;;;;;;20.44;55.02;101021.56;5115485;28;20491;-45
2023/05/11 00:30:44;;;;;;;0.20;0.20;;;;;;;20.44;55.04;101025.16;5119200;27;20054;-45
2023/05/11 00:33:10;;;;;;;0.20;0.20;;;;;;;20.44;54.71;101027.94;5097300;28;20447;-45
2023/05/11 00:35:36;;;;;;;0.20;0.20;;;;;;;20.44;54.93;101030.69;5115915;28;20043;-45
2023/05/11 00:38:02;;;;;;;0.20;0.20;;;;;;;20.44;54.77;101027.13;5117875;27;20073;-44
2023/05/11 00:40:27;;;;;;;0.20;0.20;;;;;;;20.43;54.80;101031.81;5135065;27;20092;-47
2023/05/11 00:42:53;;;;;;;0.20;0.20;;;;;;;20.44;54.92;101027.94;5135927;27;20050;-45
2023/05/11 00:45:19;;;;;;;0.20;0.20;;;;;;;20.44;54.87;101033.47;5136245;27;20045;-46
2023/05/11 00:47:45;;;;;;;0.20;0.20;;;;;;;20.43;54.38;101029.06;5135802;27;20095;-45
2023/05/11 00:50:11;;;;;;;0.20;0.20;;;;;;;20.43;53.41;101025.47;5127410;27;20047;-44
2023/05/11 00:52:36;;;;;;;0.20;0.20;;;;;;;20.43;53.38;101031.00;5115117;28;20051;-44
2023/05/11 00:55:02;;;;;;;0.20;0.20;;;;;;;20.42;53.49;101029.31;5115692;28;20590;-44
2023/05/11 00:57:30;;;;;;;0.20;0.20;;;;;;;20.43;54.68;101031.00;5116482;27;20043;-44
2023/05/11 00:59:56;;;;;;;0.20;0.20;;;;;;;20.43;54.11;101034.59;5150067;27;20224;-46
2023/05/11 01:02:21;;;;;;;0.20;0.20;;;;;;;20.43;54.02;101034.59;5135586;27;20073;-44
2023/05/11 01:04:47;;;;;;;0.20;0.20;;;;;;;20.42;53.44;101035.72;5136370;27;20142;-44
2023/05/11 01:07:19;;;;;;;0.20;0.20;;;;;;;20.41;53.62;101035.97;5135867;27;20057;-45
2023/05/11 01:10:00;;;;;;;0.20;0.20;;;;;;;20.43;54.25;101036.53;5116632;27;20047;-48
2023/05/11 01:12:32;;;;;;;0.20;0.20;;;;;;;20.42;54.70;101035.72;5135359;27;20414;-45
2023/05/11 01:15:08;;;;;;;0.20;0.20;;;;;;;20.42;54.00;101037.63;5135556;27;20050;-44
2023/05/11 01:17:42;;;;;;;0.20;0.20;;;;;;;20.41;53.94;101034.03;5135136;27;20449;-44
2023/05/11 01:20:11;;;;;;;0.20;0.20;;;;;;;20.42;54.74;101038.47;5110115;28;20051;-46
2023/05/11 01:22:50;;;;;;;0.20;0.20;;;;;;;20.43;54.53;101036.53;5114126;28;20054;-43
2023/05/11 01:25:35;;;;;;;;;;;;;;;20.42;54.61;101041.25;5097167;28;20054;-44
2023/05/11 01:28:25;;;;;;;0.20;0.20;;;;;;;20.40;53.96;101035.16;5099315;28;19923;-44
2023/05/11 01:30:53;;;;;;;0.20;0.20;;;;;;;20.42;54.60;101045.91;5098781;27;20081;-44
2023/05/11 01:33:26;;;;;;;0.10;0.10;;;;;;;20.42;54.40;101037.63;5116601;27;20275;-45
2023/05/11 01:35:55;;;;;;;0.20;0.20;;;;;;;20.42;54.62;101043.16;5135249;27;20082;-44
2023/05/11 01:38:23;;;;;;;0.20;0.20;;;;;;;20.42;54.44;101038.47;5117059;27;20074;-44
2023/05/11 01:40:53;;;;;;;0.20;0.20;;;;;;;20.41;53.93;101044.28;5134281;27;20395;-45
2023/05/11 01:43:21;;;;;;;0.20;0.20;;;;;;;20.40;54.63;101037.91;5134152;27;20066;-45
2023/05/11 01:45:48;;;;;;;0.20;0.20;;;;;;;20.41;54.45;101034.03;5135119;27;20502;-44
2023/05/11 01:48:20;;;;;;;0.20;0.20;;;;;;;20.41;54.69;101030.44;5135071;27;20047;-44
2023/05/11 01:50:47;;;;;;;0.20;0.20;;;;;;;20.42;54.69;101032.09;5115974;27;20038;-45
2023/05/11 01:53:13;;;;;;;0.20;0.20;;;;;;;20.41;54.73;101024.91;5135151;27;20533;-44
2023/05/11 01:55:40;;;;;;;0.20;0.20;;;;;;;20.40;54.50;101031.56;5135012;27;20499;-45
2023/05/11 01:58:07;;;;;;;0.20;0.20;;;;;;;20.41;54.44;101027.69;5135294;27;20054;-45
2023/05/11 02:00:34;;;;;;;0.20;0.20;;;;;;;20.40;54.59;101026.84;5134824;27;20428;-44
2023/05/11 02:03:00;;;;;;;0.20;0.20;;;;;;;20.41;53.67;101022.16;5134790;27;20103;-44
2023/05/11 02:05:27;;;;;;;0.20;0.20;;;;;;;20.41;54.37;101019.38;5116847;27;20051;-43
2023/05/11 02:07:54;;;;;;;0.20;0.20;;;;;;;20.40;54.44;101014.97;5116634;27;20107;-44
2023/05/11 02:10:24;;;;;;;0.20;0.20;;;;;;;20.40;54.41;101013.03;5134349;27;20426;-46
2023/05/11 02:12:51;;;;;;;0.20;0.20;;;;;;;20.40;54.66;101010.25;5134550;27;20438;-44
2023/05/11 02:15:16;;;;;;;0.20;0.20;;;;;;;20.40;54.14;101012.19;5135178;27;20108;-45
2023/05/11 02:17:42;;;;;;;0.20;0.20;;;;;;;20.40;53.71;101017.72;5134516;27;20522;-44
2023/05/11 02:20:09;;;;;;;0.20;0.20;;;;;;;20.39;54.44;101018.84;5134644;27;20043;-44
2023/05/11 02:22:35;;;;;;;0.20;0.20;;;;;;;20.39;53.50;101022.44;5134154;27;20248;-44
2023/05/11 02:25:03;;;;;;;0.20;0.20;;;;;;;20.39;54.00;101016.09;5116115;27;20058;-45
2023/05/11 02:27:28;;;;;;;0.20;0.20;;;;;;;20.39;54.01;101024.38;5133632;27;20515;-47
2023/05/11 02:29:54;;;;;;;0.20;0.20;;;;;;;20.39;54.23;101022.44;5126879;27;20663;-44
2023/05/11 02:32:21;;;;;;;0.20;0.20;;;;;;;20.38;53.54;101019.94;5133821;27;20108;-46
2023/05/11 02:34:54;;;;;;;0.20;0.20;;;;;;;20.40;54.57;101018.56;5133797;27;20042;-43
2023/05/11 02:37:23;;;;;;;0.20;0.20;;;;;;;20.38;54.13;101015.25;5134017;27;20069;-43
2023/05/11 02:39:53;;;;;;;0.20;0.20;;;;;;;20.39;54.21;101018.84;5098140;27;20181;-45
2023/05/11 02:42:21;;;;;;;0.20;0.20;;;;;;;20.40;54.54;101023.25;5133851;27;20093;-45
2023/05/11 02:44:58;;;;;;;0.20;0.20;;;;;;;20.39;54.31;101010.56;5111749;28;20640;-44
2023/05/11 02:47:28;;;;;;;0.20;0.20;;;;;;;20.38;54.18;101014.41;5111617;28;20043;-43
2023/05/11 02:49:56;;;;;;;0.20;0.20;;;;;;;20.38;54.43;101011.66;5123572;27;20460;-44
2023/05/11 02:52:25;;;;;;;0.20;0.20;;;;;;;20.38;53.98;101014.41;5134102;27;20450;-44
2023/05/11 02:54:52;;;;;;;0.20;0.20;;;;;;;20.38;54.04;101011.66;5124898;27;20078;-44
2023/05/11 02:57:18;;;;;;;0.20;0.20;;;;;;;20.37;53.35;101021.88;5101820;28;20142;-43
2023/05/11 02:59:45;;;;;;;0.20;0.20;;;;;;;20.37;53.64;101030.19;5101160;27;20047;-45
2023/05/11 03:02:11;;;;;;;0.20;0.20;;;;;;;20.38;53.65;101031.00;5110864;27;20043;-43
2023/05/11 03:04:38;;;;;;;0.25;0.25;;;;;;;20.37;54.04;101032.94;5082458;27;20533;-45
2023/05/11 03:07:04;;;;;;;0.20;0.20;;;;;;;20.37;53.58;101043.19;5106164;27;20050;-45
2023/05/11 03:09:30;;;;;;;0.20;0.20;;;;;;;20.38;54.12;101039.31;5117533;27;20531;-45
2023/05/11 03:11:56;;;;;;;0.20;0.20;;;;;;;20.37;53.88;101038.47;5114217;27;20523;-45
2023/05/11 03:14:22;;;;;;;0.20;0.20;;;;;;;20.36;53.85;101034.06;5128446;27;20073;-45
2023/05/11 03:16:48;;;;;;;0.20;0.20;;;;;;;20.37;53.99;101040.44;5132302;27;20415;-43
2023/05/11 03:19:15;;;;;;;0.20;0.20;;;;;;;20.37;53.73;101032.13;5113967;28;20047;-46
2023/05/11 03:21:41;;;;;;;0.20;0.20;;;;;;;20.37;54.01;101034.91;5133441;27;20407;-43
2023/05/11 03:24:07;;;;;;;0.20;0.20;;;;;;;20.37;52.98;101032.13;5134008;27;20155;-47
2023/05/11 03:26:33;;;;;;;0.20;0.20;;;;;;;20.36;53.77;101034.06;5133704;27;20084;-45
2023/05/11 03:28:59;;;;;;;0.20;0.20;;;;;;;20.35;53.52;101029.66;5102906;27;20043;-47
2023/05/11 03:31:25;;;;;;;0.20;0.20;;;;;;;20.36;53.06;101027.72;5128796;27;20043;-43
2023/05/11 03:33:51;;;;;;;0.20;0.20;;;;;;;20.36;53.00;101022.19;5134409;27;20051;-43
2023/05/11 03:36:17;;;;;;;0.20;0.20;;;;;;;20.36;53.99;101019.41;5133443;27;20051;-45
2023/05/11 03:38:45;;;;;;;0.20;0.20;;;;;;;20.36;52.91;101022.19;5133375;27;20047;-44
2023/05/11 03:41:14;;;;;;;0.20;0.20;;;;;;;20.36;53.05;101024.94;5127985;27;20209;-47
2023/05/11 03:43:42;;;;;;;0.20;0.20;;;;;;;20.35;53.43;101021.34;5108692;27;20525;-46
2023/05/11 03:46:10;;;;;;;0.20;0.20;;;;;;;20.35;53.40;101015.81;5121742;27;20083;-45
2023/05/11 03:48:38;;;;;;;0.20;0.20;;;;;;;20.35;53.51;101023.31;5117650;27;20050;-48
2023/05/11 03:51:04;;;;;;;0.30;0.30;;;;;;;20.35;53.66;101017.78;5127637;27;20279;-47
2023/05/11 03:53:30;;;;;;;0.20;0.20;;;;;;;20.35;53.76;101023.31;5125220;27;20298;-45
2023/05/11 03:55:56;;;;;;;0.20;0.20;;;;;;;20.34;53.47;101021.66;5116223;27;20491;-46
2023/05/11 03:58:22;;;;;;;0.20;0.20;;;;;;;20.34;53.89;101019.72;5145016;27;20188;-44
2023/05/11 04:00:47;;;;;;;0.20;0.20;;;;;;;20.35;53.77;101020.53;5121263;27;20456;-44
2023/05/11 04:03:13;;;;;;;0.20;0.20;;;;;;;20.35;53.60;101017.78;5117659;27;20045;-44
2023/05/11 04:05:39;;;;;;;0.22;0.22;;;;;;;20.35;53.94;101021.34;5131523;27;20065;-43
2023/05/11 04:08:05;;;;;;;0.20;0.20;;;;;;;20.34;52.82;101016.94;5135470;27;20183;-43
2023/05/11 04:10:31;;;;;;;0.20;0.20;;;;;;;20.33;52.92;101018.03;5126736;27;20047;-45
2023/05/11 04:12:56;;;;;;;0.20;0.20;;;;;;;20.35;53.74;101023.31;5120673;27;20039;-44
2023/05/11 04:15:22;;;;;;;0.20;0.20;;;;;;;20.35;54.00;101018.59;5129314;27;20062;-45
2023/05/11 04:17:48;;;;;;;0.20;0.20;;;;;;;20.34;53.83;101016.94;5117902;27;20058;-47
2023/05/11 04:20:13;;;;;;;0.20;0.20;;;;;;;20.34;54.01;101025.25;5147693;27;20050;-43
2023/05/11 04:22:39;;;;;;;0.20;0.20;;;;;;;20.34;53.72;101025.25;5118088;27;20077;-46
2023/05/11 04:25:05;;;;;;;0.20;0.20;;;;;;;20.35;53.55;101031.59;5137605;27;20414;-45
2023/05/11 04:27:32;;;;;;;0.20;0.20;;;;;;;20.33;52.99;101026.34;5134127;27;20069;-44
2023/05/11 04:29:58;;;;;;;0.20;0.20;;;;;;;20.34;53.75;101038.25;5133474;27;20509;-44
2023/05/11 04:32:24;;;;;;;0.20;0.20;;;;;;;20.33;52.83;101034.63;5124339;27;20047;-44
2023/05/11 04:34:50;;;;;;;0.20;0.20;;;;;;;20.33;52.74;101037.41;5136569;27;20056;-46
2023/05/11 04:37:15;;;;;;;0.20;0.20;;;;;;;20.32;53.33;101041.28;5127128;27;20045;-43
2023/05/11 04:39:41;;;;;;;0.20;0.20;;;;;;;20.34;53.62;101038.25;5135036;27;20218;-46
2023/05/11 04:42:07;;;;;;;0.20;0.20;;;;;;;20.32;53.88;101040.47;5134915;27;20042;-43
2023/05/11 04:44:32;;;;;;;0.20;0.20;;;;;;;20.30;54.04;101038.00;5135316;27;20049;-45
2023/05/11 04:46:58;;;;;;;0.20;0.20;;;;;;;20.32;53.40;101046.81;5130502;27;20490;-43
2023/05/11 04:49:24;;;;;;;0.20;0.20;;;;;;;20.32;53.67;101046.00;5128799;27;20043;-44
2023/05/11 04:51:49;;;;;;;0.20;0.20;;;;;;;20.30;53.49;101047.13;5132355;27;20043;-46
2023/05/11 04:54:15;;;;;;;0.20;0.20;;;;;;;20.30;53.53;101051.81;5134854;27;20090;-43
2023/05/11 04:56:41;;;;;;;0.20;0.20;;;;;;;20.29;53.29;101050.13;5135576;27;20432;-44
2023/05/11 04:59:07;;;;;;;0.20;0.20;;;;;;;20.27;53.27;101052.38;5131912;27;20048;-44
2023/05/11 05:01:32;;;;;;;0.20;0.20;;;;;;;20.30;52.92;101055.41;5130783;27;20806;-44
2023/05/11 05:03:58;;;;;;;0.20;0.20;;;;;;;20.30;52.82;101052.66;5112404;27;20176;-44
2023/05/11 05:06:24;;;;;;;0.20;0.20;;;;;;;20.28;52.95;101054.84;5132827;27;20530;-44
2023/05/11 05:08:50;;;;;;;0.20;0.20;;;;;;;20.30;53.10;101057.34;5134147;27;20271;-45
2023/05/11 05:11:15;;;;;;;0.45;0.45;;;;;;;20.31;52.94;101059.00;5127072;27;20062;-45
2023/05/11 05:13:41;;;;;;;0.20;0.20;;;;;;;20.30;53.10;101062.88;5115060;27;20105;-45
2023/05/11 05:16:07;;;;;;;0.20;0.20;;;;;;;20.30;52.67;101065.66;5120879;27;20405;-45
2023/05/11 05:18:32;;;;;;;0.20;0.20;;;;;;;20.30;52.98;101072.00;5125741;27;20046;-43
2023/05/11 05:20:58;;;;;;;0.20;0.20;;;;;;;20.30;52.78;101066.47;5127698;27;20051;-43
2023/05/11 05:23:24;;;;;;;0.20;0.20;;;;;;;20.30;52.75;101069.25;5114998;27;20103;-43
2023/05/11 05:25:49;;;;;;;0.20;0.20;;;;;;;20.31;52.86;101081.13;5101145;27;20042;-45
2023/05/11 05:28:15;;;;;;;0.20;0.20;;;;;;;20.30;52.75;101072.00;5120766;27;20050;-47
2023/05/11 05:30:41;;;;;;;0.20;0.20;;;;;;;20.30;53.28;101077.53;5127950;27;20473;-44
2023/05/11 05:33:06;;;;;;;0.30;0.30;;;;;;;20.31;53.35;101086.66;5114690;27;20047;-44
2023/05/11 05:35:32;;;;;;;0.20;0.20;;;;;;;20.30;53.02;101083.06;5115678;27;20434;-45
2023/05/11 05:37:58;;;;;;;0.20;0.20;;;;;;;20.31;53.17;101089.41;5131633;27;20185;-44
2023/05/11 05:40:23;;;;;;;0.20;0.20;;;;;;;20.29;52.76;101084.19;5131124;27;20055;-46
2023/05/11 05:42:49;;;;;;;0.20;0.20;;;;;;;20.31;52.92;101092.19;5123143;27;20077;-47
2023/05/11 05:45:15;;;;;;;0.20;0.20;;;;;;;20.32;52.59;101095.78;5127897;27;20043;-45
2023/05/11 05:47:40;;;;;;;0.20;0.20;;;;;;;20.29;52.64;101092.47;5124590;27;20038;-44
2023/05/11 05:50:07;;;;;;;0.20;0.20;;;;;;;20.31;52.94;101106.00;5117396;27;20145;-57
2023/05/11 05:52:33;;;;;;;0.20;0.20;;;;;;;20.36;52.82;101096.88;5124185;27;20047;-45
2023/05/11 05:54:58;;;;;;;0.20;0.20;;;;;;;20.37;53.34;101104.03;5120362;27;20554;-44
2023/05/11 05:57:24;;;;;;;0.20;0.20;;;;;;;20.39;53.71;101110.13;5120866;27;20399;-45
2023/05/11 05:59:50;;;;;;;0.20;0.20;;;;;;;20.36;53.63;101105.16;5114913;27;20042;-44
2023/05/11 06:02:16;;;;;;;0.20;0.20;;;;;;;20.38;54.01;101103.78;5110194;27;20054;-43
2023/05/11 06:04:41;;;;;;;0.20;0.20;;;;;;;20.38;54.35;101112.06;5107701;27;20845;-48
2023/05/11 06:07:07;;;;;;;0.20;0.20;;;;;;;20.38;54.00;101109.31;5113032;27;20042;-44
2023/05/11 06:09:33;;;;;;;0.20;0.20;;;;;;;20.37;54.01;101107.63;5121223;27;20442;-44
2023/05/11 06:11:59;;;;;;;0.20;0.20;;;;;;;20.36;53.79;101110.69;5115554;27;20054;-46
2023/05/11 06:14:25;;;;;;;0.20;0.20;;;;;;;20.36;53.65;101102.41;5119088;27;20184;-46
2023/05/11 06:16:52;;;;;;;0.20;0.20;;;;;;;20.36;53.82;101097.69;5131553;27;20545;-46
2023/05/11 06:19:18;;;;;;;0.20;0.20;;;;;;;20.37;53.50;101102.09;5121759;27;20312;-44
2023/05/11 06:21:44;;;;;;;0.20;0.20;;;;;;;20.38;53.69;101102.91;5120856;27;20646;-44
2023/05/11 06:24:10;;;;;;;0.20;0.20;;;;;;;20.37;53.59;101106.81;5123085;27;20057;-43
2023/05/11 06:26:36;;;;;;;0.20;0.20;;;;;;;20.36;53.39;101106.00;5119077;27;20050;-45
2023/05/11 06:29:01;;;;;;;0.20;0.20;;;;;;;20.37;53.27;101109.56;5125066;27;20051;-44
2023/05/11 06:31:28;;;;;;;0.20;0.20;;;;;;;20.37;53.38;101104.03;5120945;27;20634;-44
2023/05/11 06:33:54;;;;;;;0.20;0.20;;;;;;;20.38;53.61;101105.69;5119783;27;20047;-44
2023/05/11 06:36:19;;;;;;;0.20;0.20;;;;;;;20.37;53.55;101101.28;5093425;27;20055;-44
2023/05/11 06:38:46;;;;;;;0.20;0.20;;;;;;;20.35;53.46;101101.56;5093212;27;20092;-44
2023/05/11 06:41:12;;;;;;;0.20;0.20;;;;;;;20.38;53.60;101108.47;5116937;27;20038;-45
2023/05/11 06:43:38;;;;;;;0.30;0.30;;;;;;;20.37;53.39;101099.34;5117822;27;20406;-46
2023/05/11 06:46:04;;;;;;;0.20;0.20;;;;;;;20.39;53.11;101099.06;5101132;27;20047;-44
2023/05/11 06:48:30;;;;;;;0.20;0.20;;;;;;;20.39;53.23;101102.66;5119996;27;20045;-44
2023/05/11 06:50:56;;;;;;;0.20;0.20;;;;;;;20.40;53.37;101111.78;5100394;27;20046;-43
2023/05/11 06:53:22;;;;;;;0.20;0.20;;;;;;;20.39;53.49;101110.13;5096549;27;20050;-44
2023/05/11 06:55:47;;;;;;;0.20;0.20;;;;;;;20.38;53.57;101105.69;5108732;27;20123;-43
2023/05/11 06:58:13;;;;;;;0.20;0.20;;;;;;;20.38;53.66;101109.31;5105169;27;20471;-43
2023/05/11 07:00:39;;;;;;;0.20;0.20;;;;;;;20.40;53.42;101109.00;5105805;27;20227;-44
2023/05/11 07:03:05;;;;;;;0.20;0.20;;;;;;;20.39;53.52;101107.38;5085687;27;20302;-45
2023/05/11 07:05:31;;;;;;;0.20;0.20;;;;;;;20.40;53.34;101109.00;5100982;27;20058;-46
2023/05/11 07:07:56;;;;;;;0.20;0.20;;;;;;;20.40;53.37;101106.25;5079408;27;20066;-45
2023/05/11 07:10:22;;;;;;;0.20;0.20;;;;;;;20.40;53.52;101112.59;5100227;27;20047;-45
2023/05/11 07:12:48;;;;;;;0.20;0.20;;;;;;;20.40;53.29;101103.47;5099887;27;20047;-45
2023/05/11 07:15:14;;;;;;;0.20;0.20;;;;;;;20.40;53.34;101106.25;5104939;27;20364;-45
2023/05/11 07:17:40;;;;;;;0.20;0.20;;;;;;;20.39;53.27;101113.72;5110112;27;20554;-44
2023/05/11 07:20:06;;;;;;;0.20;0.20;;;;;;;20.38;52.89;101105.69;5122900;27;20073;-44
2023/05/11 07:22:31;;;;;;;0.20;0.20;;;;;;;20.39;52.97;101107.38;5119988;27;20039;-45
2023/05/11 07:24:59;;;;;;;0.20;0.20;;;;;;;20.38;53.02;101109.31;5122582;27;20107;-45
2023/05/11 07:27:24;;;;;;;0.20;0.20;;;;;;;20.37;53.05;101104.88;5124645;27;20043;-44
2023/05/11 07:29:51;;;;;;;0.20;0.20;;;;;;;20.38;52.86;101114.00;5116024;27;20498;-45
2023/05/11 07:32:17;;;;;;;0.20;0.20;;;;;;;20.37;52.70;101118.69;5121858;27;20139;-44
2023/05/11 07:34:43;;;;;;;0.20;0.20;;;;;;;20.38;52.77;101117.59;5120067;27;20047;-43
2023/05/11 07:37:09;;;;;;;0.20;0.20;;;;;;;20.38;52.34;101108.47;5120950;27;20518;-46
2023/05/11 07:39:34;;;;;;;0.20;0.20;;;;;;;20.39;52.79;101105.44;5122854;27;20130;-44
2023/05/11 07:42:00;;;;;;;0.20;0.20;;;;;;;20.40;52.93;101115.38;5121067;27;20192;-47
2023/05/11 07:44:26;;;;;;;0.20;0.20;;;;;;;20.18;52.93;101112.16;5121575;27;20050;-45
2023/05/11 07:46:51;;;;;;;0.20;0.20;;;;;;;20.33;52.67;101114.00;5113797;27;20144;-45
2023/05/11 07:49:17;;;;;;;0.20;0.20;;;;;;;20.37;52.94;101121.47;5120556;27;20047;-47
2023/05/11 07:51:57;;;;;;;0.20;0.20;;;;;;;20.38;52.78;101116.75;5127372;27;20054;-45
2023/05/11 07:54:22;;;;;;;0.20;0.20;;;;;;;20.38;52.59;101111.22;5100338;27;20483;-45
2023/05/11 07:56:49;;;;;;;0.20;0.20;;;;;;;20.39;52.73;101113.72;5123027;27;20602;-44
2023/05/11 07:59:14;;;;;;;0.20;0.20;;;;;;;20.39;52.68;101112.91;5109769;27;20046;-43
2023/05/11 08:01:40;;;;;;;0.20;0.20;;;;;;;20.40;52.95;101114.53;5121255;27;20070;-45
2023/05/11 08:04:06;;;;;;;0.20;0.20;;;;;;;20.40;53.19;101111.78;5112641;27;20305;-44
2023/05/11 08:06:32;;;;;;;0.20;0.20;;;;;;;20.40;52.93;101109.84;5111638;27;20046;-45
2023/05/11 08:08:57;;;;;;;0.20;0.20;;;;;;;20.40;52.81;101111.78;5108674;27;20304;-43
2023/05/11 08:11:23;;;;;;;0.20;0.20;;;;;;;20.39;52.99;101110.97;5111429;27;20054;-46
2023/05/11 08:13:49;;;;;;;0.20;0.20;;;;;;;20.43;52.84;101111.22;5112392;27;20362;-44
2023/05/11 08:16:14;;;;;;;0.20;0.20;;;;;;;20.42;53.05;101117.84;5109857;27;20640;-44
2023/05/11 08:18:40;;;;;;;0.20;0.20;;;;;;;20.42;53.08;101115.06;5116211;27;20051;-43
2023/05/11 08:21:06;;;;;;;0.20;0.20;;;;;;;20.42;52.84;101112.31;5114735;27;20626;-45
2023/05/11 08:23:32;;;;;;;0.20;0.20;;;;;;;20.42;52.96;101118.69;5117122;27;20049;-44
2023/05/11 08:25:58;;;;;;;0.20;0.20;;;;;;;20.42;52.92;101120.59;5115658;27;20055;-44
2023/05/11 08:28:24;;;;;;;0.20;0.20;;;;;;;20.43;53.17;101116.75;5112157;27;20099;-43
2023/05/11 08:30:54;;;;;;;0.20;0.20;;;;;;;20.43;52.93;101122.28;5100747;27;20039;-46
2023/05/11 08:33:19;;;;;;;0.20;0.20;;;;;;;20.42;53.32;101123.38;5091130;27;20039;-44
2023/05/11 08:36:03;;;;;;;0.20;0.20;;;;;;;20.43;53.40;101123.09;5110773;27;20049;-45
2023/05/11 08:38:29;;;;;;;0.20;0.20;;;;;;;20.43;53.22;101119.53;5110852;27;20730;-44
2023/05/11 08:40:55;;;;;;;0.20;0.20;;;;;;;20.43;53.19;101119.53;5118877;27;20197;-45
2023/05/11 08:43:22;;;;;;;0.20;0.20;;;;;;;20.44;53.10;101121.16;5112864;27;20498;-43
2023/05/11 08:45:49;;;;;;;0.20;0.20;;;;;;;20.44;53.43;101121.16;5117105;27;20039;-43
2023/05/11 08:48:16;;;;;;;0.20;0.20;;;;;;;20.44;53.62;101108.16;5094042;27;20047;-48
2023/05/11 08:50:44;;;;;;;0.20;0.20;;;;;;;20.45;53.60;101120.03;5121969;27;20066;-46
2023/05/11 08:53:10;;;;;;;0.20;0.20;;;;;;;20.45;53.06;101122.81;5117572;27;20610;-46
2023/05/11 08:55:37;;;;;;;0.20;0.20;;;;;;;20.45;53.23;101126.41;5096488;27;20512;-46
2023/05/11 08:58:05;;;;;;;0.20;0.20;;;;;;;20.46;53.52;101128.06;5127126;27;20426;-48
2023/05/11 09:00:32;;;;;;;0.20;0.20;;;;;;;20.46;53.21;101127.22;5124540;27;20379;-46
2023/05/11 09:02:57;;;;;;;0.20;0.20;;;;;;;20.45;53.40;101129.16;5086253;27;20519;-45
2023/05/11 09:05:24;;;;;;;0.20;0.20;;;;;;;20.46;53.28;101135.53;5124604;27;20693;-46
2023/05/11 09:07:52;;;;;;;0.20;0.20;;;;;;;20.46;53.13;101132.75;5128961;27;20426;-45
2023/05/11 09:10:18;;;;;;;0.20;0.20;;;;;;;20.46;53.03;101133.59;5087575;27;20039;-44
2023/05/11 09:12:44;;;;;;;0.20;0.20;;;;;;;20.46;53.05;101125.28;5125315;27;20053;-45
2023/05/11 09:15:10;;;;;;;0.20;0.20;;;;;;;20.46;53.24;101130.81;5122543;27;20043;-43
2023/05/11 09:17:36;;;;;;;0.20;0.20;;;;;;;20.46;53.27;101130.81;5120555;27;20346;-44
2023/05/11 09:20:04;;;;;;;0.20;0.20;;;;;;;20.47;53.01;101128.91;5120209;27;20406;-43
2023/05/11 09:22:32;;;;;;;0.20;0.20;;;;;;;20.47;53.13;101128.91;5098882;27;20050;-43
2023/05/11 09:25:02;;;;;;;0.20;0.20;;;;;;;20.46;53.41;101122.53;5100273;27;20047;-44
2023/05/11 09:27:28;;;;;;;0.20;0.20;;;;;;;20.48;53.20;101125.88;5131241;27;20353;-44
2023/05/11 09:29:54;;;;;;;0.20;0.20;;;;;;;20.49;53.81;101127.53;5097850;27;20046;-43
2023/05/11 09:32:19;;;;;;;0.20;0.20;;;;;;;20.49;54.00;101119.22;5119244;27;20096;-43
2023/05/11 09:34:45;;;;;;;0.20;0.20;;;;;;;20.48;54.14;101120.34;5115811;27;20493;-45
2023/05/11 09:37:16;;;;;;;0.20;0.20;;;;;;;20.50;53.86;101120.88;5113866;27;20047;-45
2023/05/11 09:39:42;;;;;;;0.20;0.20;;;;;;;20.50;53.79;101122.81;5101785;27;20099;-45
2023/05/11 09:42:28;;;;;;;0.20;0.20;;;;;;;20.49;53.59;101118.41;5087374;27;20103;-47
2023/05/11 09:44:54;;;;;;;0.20;0.20;;;;;;;20.50;53.61;101125.56;5116490;27;20038;-45
2023/05/11 09:47:21;;;;;;;0.20;0.20;;;;;;;20.48;53.88;101125.88;5109529;27;20070;-45
2023/05/11 09:49:47;;;;;;;0.20;0.20;;;;;;;20.48;53.56;101125.88;5118700;27;20062;-45
2023/05/11 09:52:15;;;;;;;0.20;0.20;;;;;;;20.49;54.07;101118.41;5095134;27;20062;-47
2023/05/11 09:54:42;;;;;;;0.20;0.20;;;;;;;20.49;54.00;101121.16;5124416;27;20139;-45
2023/05/11 09:57:26;;;;;;;0.20;0.20;;;;;;;20.48;53.65;101127.81;5122567;27;20035;-46
2023/05/11 09:59:52;;;;;;;0.20;0.20;;;;;;;20.47;53.55;101132.50;5094913;27;20269;-47
2023/05/11 10:02:22;;;;;;;0.20;0.20;;;;;;;20.49;53.78;101124.75;5116737;27;20051;-46
2023/05/11 10:04:50;;;;;;;0.20;0.20;;;;;;;20.48;53.87;101125.06;5100662;27;20418;-43
2023/05/11 10:07:36;;;;;;;0.10;0.10;;;;;;;20.48;53.65;101125.06;5093635;28;20510;-44
2023/05/11 10:10:05;;;;;;;0.20;0.20;;;;;;;20.48;54.14;101120.34;5101612;27;20066;-43
2023/05/11 10:12:32;;;;;;;0.20;0.20;;;;;;;20.48;53.53;101109.28;5124497;27;20461;-46
2023/05/11 10:15:03;;;;;;;0.20;0.20;;;;;;;20.48;54.05;101127.81;5128827;27;20039;-43
2023/05/11 10:17:30;;;;;;;0.20;0.20;;;;;;;20.48;53.63;101119.53;5119007;27;20075;-44
2023/05/11 10:19:56;;;;;;;0.20;0.20;;;;;;;20.48;53.79;101125.06;5099414;27;20047;-43
2023/05/11 10:22:24;;;;;;;0.20;0.20;;;;;;;20.47;53.56;101120.59;5121691;27;20270;-45
2023/05/11 10:24:51;;;;;;;0.20;0.20;;;;;;;20.47;53.47;101115.91;5116515;27;20763;-45
2023/05/11 10:27:17;;;;;;;0.30;0.30;;;;;;;20.46;52.88;101116.97;5110113;27;20904;-46
2023/05/11 10:29:44;;;;;;;0.20;0.20;;;;;;;20.47;52.89;101120.59;5092433;27;20058;-43
2023/05/11 10:32:10;;;;;;;0.20;0.20;;;;;;;20.47;53.15;101123.38;5099324;27;20782;-46
2023/05/11 10:34:38;;;;;;;0.20;0.20;;;;;;;20.45;53.32;101115.34;5116794;27;20086;-43
2023/05/11 10:37:04;;;;;;;0.20;0.20;;;;;;;20.46;52.97;101116.97;5112794;27;20275;-43
2023/05/11 10:39:30;;;;;;;0.20;0.20;;;;;;;20.47;53.48;101117.84;5085121;27;21146;-45
2023/05/11 10:45:20;;;;;;;0.20;0.20;;;;;;;20.47;53.18;101117.84;5145107;27;20144;-41
2023/05/11 10:48:25;;;;;;;0.10;0.10;;;;;;;20.48;53.52;101122.28;5102432;27;20069;-43
2023/05/11 10:51:04;;;;;;;0.20;0.20;;;;;;;20.46;53.27;101118.94;5100697;27;20118;-46
2023/05/11 10:53:49;;;;;;;0.20;0.20;;;;;;;20.47;53.05;101120.59;5142529;27;20302;-46
2023/05/11 10:56:29;;;;;;;0.20;0.20;;;;;;;20.46;53.44;101114.22;5139141;27;20077;-44
2023/05/11 10:59:19;;;;;;;0.20;0.20;;;;;;;20.47;53.30;101112.31;5139414;27;20050;-43
2023/05/11 11:01:45;;;;;;;0.20;0.20;;;;;;;20.46;53.41;101114.22;5137589;27;20210;-45
2023/05/11 11:04:12;;;;;;;0.20;0.20;;;;;;;20.46;53.62;101116.16;5142381;27;20149;-43
2023/05/11 11:06:41;;;;;;;0.45;0.30;;;;;;;20.46;53.76;101122.53;5112854;27;20132;-44
2023/05/11 11:09:11;;;;;;;0.20;0.20;;;;;;;20.47;53.38;101115.06;5131940;27;20077;-44
2023/05/11 11:11:46;;;;;;;0.20;0.20;;;;;;;20.46;53.19;101111.44;5131453;27;20118;-43
2023/05/11 11:14:13;;;;;;;0.20;0.20;;;;;;;20.45;53.10;101111.75;5122990;27;20046;-44
2023/05/11 11:16:40;;;;;;;0.20;0.20;;;;;;;20.46;53.21;101105.09;5117315;27;20052;-44
2023/05/11 11:19:32;;;;;;;0.20;0.20;;;;;;;20.44;53.89;101104.56;5128135;27;20137;-44
2023/05/11 11:21:59;;;;;;;0.20;0.20;;;;;;;20.46;52.99;101105.91;5123914;27;20521;-43
2023/05/11 11:24:43;;;;;;;0.20;0.20;;;;;;;20.48;53.39;101097.38;5147294;27;20038;-44
2023/05/11 11:27:09;;;;;;;0.20;0.20;;;;;;;20.46;53.31;101092.09;5125925;27;20049;-45
2023/05/11 11:29:35;;;;;;;0.30;0.30;;;;;;;20.47;53.36;101095.72;5101350;27;20046;-43